Terminal Aerodrome Forecast
Issued by NWS

Home | Current Version | Previous Version | Text Only | Print | Product List | Glossary On
Versions: 1 2 3 4 5 6 7 8 9 10 11 12
000
FTAK31 PANC 172337
TAFAHO
TAF
PAHO 172337Z 1800/1824 26006KT P6SM -SHRA SCT025 OVC050
     FM180400 VRB04KT P6SM SCT008 BKN018
     FM181800 22006KT P6SM SCT025 BKN050=

USA.gov is the U.S. government's official web portal to all federal, state and local government web resources and services.